createdAt,value
2017-12-02T00:00:51.904Z,39.40
2017-12-02T00:03:19.344Z,46.20
2017-12-02T00:05:46.800Z,36.30
2017-12-02T00:08:14.228Z,35.90
2017-12-02T00:10:41.674Z,32.10
2017-12-02T00:13:09.299Z,41.08
2017-12-02T00:15:36.736Z,37.70
2017-12-02T00:18:04.175Z,39.20
2017-12-02T00:20:31.998Z,29.77
2017-12-02T00:22:59.642Z,40.40
2017-12-02T00:25:27.063Z,38.97
2017-12-02T00:27:54.495Z,38.83
2017-12-02T00:30:22.339Z,38.13
2017-12-02T00:32:49.781Z,36.90
2017-12-02T00:35:17.218Z,38.28
2017-12-02T00:37:44.976Z,38.77
2017-12-02T00:40:12.408Z,36.03
2017-12-02T00:42:39.848Z,38.20
2017-12-02T00:45:07.696Z,34.27
2017-12-02T00:47:35.533Z,37.63
2017-12-02T00:50:02.972Z,34.55
2017-12-02T00:52:30.518Z,31.87
2017-12-02T00:54:57.951Z,39.75
2017-12-02T00:57:25.397Z,35.65
2017-12-02T00:59:53.503Z,31.13
2017-12-02T01:02:20.953Z,32.23
2017-12-02T01:04:48.395Z,34.17
2017-12-02T01:07:15.859Z,30.17
2017-12-02T01:09:43.287Z,36.80
2017-12-02T01:12:11.117Z,41.13
2017-12-02T01:14:38.650Z,29.40
2017-12-02T01:17:06.084Z,33.40
2017-12-02T01:19:33.512Z,33.83
2017-12-02T01:22:01.365Z,33.37
2017-12-02T01:24:28.775Z,42.40
2017-12-02T01:26:56.213Z,33.80
2017-12-02T01:29:23.645Z,38.40
2017-12-02T01:31:51.580Z,33.67
2017-12-02T01:34:19.012Z,33.43
2017-12-02T01:36:46.456Z,30.57
2017-12-02T01:39:14.228Z,33.70
2017-12-02T01:41:41.661Z,31.23
2017-12-02T01:44:09.092Z,35.60
2017-12-02T01:46:36.799Z,31.10
2017-12-02T01:49:04.225Z,33.90
2017-12-02T01:51:31.667Z,34.40
2017-12-02T01:53:59.124Z,25.95
2017-12-02T01:56:26.570Z,32.20
2017-12-02T01:58:54.401Z,29.87
2017-12-02T02:01:22.500Z,32.55
2017-12-02T02:03:50.331Z,32.55
2017-12-02T02:06:18.075Z,32.67
2017-12-02T02:08:45.512Z,31.70
2017-12-02T02:11:12.952Z,33.20
2017-12-02T02:13:40.437Z,29.67
2017-12-02T02:16:07.897Z,30.50
2017-12-02T02:18:35.328Z,32.77
2017-12-02T02:21:02.769Z,34.60
2017-12-02T02:23:30.196Z,152.07
2017-12-02T02:25:57.796Z,171.77
2017-12-02T02:28:25.243Z,181.50
2017-12-02T02:30:52.717Z,183.30
2017-12-02T02:33:20.163Z,104.57
2017-12-02T02:35:47.649Z,50.03
2017-12-02T02:38:15.068Z,36.20
2017-12-02T02:40:42.496Z,33.43
2017-12-02T02:43:10.323Z,32.80
2017-12-02T02:45:37.777Z,30.40
2017-12-02T02:48:05.214Z,29.03
2017-12-02T02:50:32.648Z,32.80
2017-12-02T02:53:00.088Z,31.27
2017-12-02T02:55:28.299Z,27.90
2017-12-02T02:57:55.731Z,33.33
2017-12-02T03:00:23.177Z,27.80
2017-12-02T03:02:50.611Z,32.03
2017-12-02T03:05:18.446Z,29.48
2017-12-02T03:07:45.903Z,28.62
2017-12-02T03:10:13.339Z,29.93
2017-12-02T03:12:40.776Z,35.40
2017-12-02T03:15:08.223Z,26.83
2017-12-02T03:17:35.664Z,31.37
2017-12-02T03:20:03.783Z,35.47
2017-12-02T03:22:31.220Z,31.10
2017-12-02T03:24:58.652Z,35.22
2017-12-02T03:27:26.116Z,43.60
2017-12-02T03:29:53.553Z,50.22
2017-12-02T03:32:21.001Z,56.33
2017-12-02T03:34:48.856Z,69.72
2017-12-02T03:37:16.706Z,59.35
2017-12-02T03:39:44.139Z,62.03
2017-12-02T03:42:11.606Z,60.45
2017-12-02T03:44:39.061Z,59.05
2017-12-02T03:47:06.507Z,55.97
2017-12-02T03:49:33.977Z,55.75
2017-12-02T03:52:01.425Z,57.78
2017-12-02T03:54:28.865Z,57.53
2017-12-02T03:56:56.321Z,51.40
2017-12-02T03:59:23.764Z,58.45
2017-12-02T04:01:51.197Z,57.08
2017-12-02T04:04:18.670Z,50.35
2017-12-02T04:06:46.110Z,53.17
2017-12-02T04:09:13.538Z,58.55
2017-12-02T04:11:42.209Z,59.85
2017-12-02T04:14:09.643Z,55.05
2017-12-02T04:16:37.086Z,53.15
2017-12-02T04:19:04.537Z,57.17
2017-12-02T04:21:31.976Z,51.92
2017-12-02T04:23:59.413Z,49.28
2017-12-02T04:26:26.886Z,57.88
2017-12-02T04:28:54.319Z,49.10
2017-12-02T04:31:22.144Z,44.08
2017-12-02T04:33:50.913Z,51.70
2017-12-02T04:36:18.364Z,43.75
2017-12-02T04:38:45.801Z,42.22
2017-12-02T04:41:13.256Z,43.45
2017-12-02T04:43:40.702Z,44.38
2017-12-02T04:46:08.147Z,45.25
2017-12-02T04:48:35.982Z,49.15
2017-12-02T04:51:03.821Z,39.75
2017-12-02T04:53:31.260Z,40.83
2017-12-02T04:55:58.698Z,38.03
2017-12-02T04:58:26.167Z,44.47
2017-12-02T05:00:53.600Z,41.55
2017-12-02T05:03:21.038Z,41.15
2017-12-02T05:05:48.892Z,39.40
2017-12-02T05:08:16.325Z,44.33
2017-12-02T05:10:43.769Z,36.58
2017-12-02T05:13:11.480Z,39.20
2017-12-02T05:15:38.922Z,41.42
2017-12-02T05:18:06.756Z,40.83
2017-12-02T05:20:34.209Z,38.20
2017-12-02T05:23:01.661Z,36.72
2017-12-02T05:25:29.100Z,40.37
2017-12-02T05:27:56.543Z,35.42
2017-12-02T05:30:23.989Z,33.90
2017-12-02T05:32:51.540Z,38.20
2017-12-02T05:35:18.981Z,32.27
2017-12-02T05:37:46.808Z,38.50
2017-12-02T05:40:15.174Z,38.60
2017-12-02T05:42:42.616Z,36.75
2017-12-02T05:45:10.044Z,35.80
2017-12-02T05:47:37.744Z,36.23
2017-12-02T05:50:05.189Z,38.90
2017-12-02T05:52:32.625Z,36.37
2017-12-02T05:55:00.081Z,30.80
2017-12-02T05:57:27.521Z,36.90
2017-12-02T05:59:54.960Z,38.67
2017-12-02T06:02:22.812Z,37.03
2017-12-02T06:04:50.300Z,36.20
2017-12-02T06:07:17.745Z,35.60
2017-12-02T06:09:45.868Z,42.65
2017-12-02T06:12:13.308Z,37.45
2017-12-02T06:14:40.750Z,40.38
2017-12-02T06:17:08.192Z,37.42
2017-12-02T06:19:35.648Z,36.70
2017-12-02T06:22:03.088Z,35.85
2017-12-02T06:24:30.919Z,36.75
2017-12-02T06:26:58.393Z,47.65
2017-12-02T06:29:25.833Z,42.85
2017-12-02T06:31:53.270Z,41.83
2017-12-02T06:34:20.714Z,44.72
2017-12-02T06:36:48.144Z,47.25
2017-12-02T06:39:15.581Z,46.05
2017-12-02T06:41:43.040Z,47.38
2017-12-02T06:44:10.898Z,45.08
2017-12-02T06:46:38.741Z,46.67
2017-12-02T06:49:06.196Z,50.38
2017-12-02T06:51:33.628Z,58.75
2017-12-02T06:54:01.070Z,49.20
2017-12-02T06:56:28.742Z,51.45
2017-12-02T06:58:56.173Z,53.13
2017-12-02T07:01:23.604Z,61.40
2017-12-02T07:03:51.450Z,55.03
2017-12-02T07:06:18.883Z,54.67
2017-12-02T07:08:46.320Z,54.92
2017-12-02T07:11:13.783Z,63.22
2017-12-02T07:13:41.221Z,137.10
2017-12-02T07:16:08.648Z,54.33
2017-12-02T07:18:36.116Z,56.47
2017-12-02T07:21:03.560Z,47.60
2017-12-02T07:23:31.386Z,52.05
2017-12-02T07:25:58.836Z,81.40
2017-12-02T07:28:26.283Z,148.90
2017-12-02T07:30:54.537Z,148.95
2017-12-02T07:33:22.002Z,66.32
2017-12-02T07:35:49.428Z,91.32
2017-12-02T07:38:16.873Z,165.68
2017-12-02T07:40:44.571Z,197.00
2017-12-02T07:43:12.020Z,85.90
2017-12-02T07:45:39.454Z,46.00
2017-12-02T07:48:06.901Z,49.33
2017-12-02T07:50:34.349Z,44.08
2017-12-02T07:53:01.788Z,42.70
2017-12-02T07:55:29.746Z,40.95
2017-12-02T07:57:57.189Z,37.88
2017-12-02T08:00:24.629Z,42.30
2017-12-02T08:02:52.097Z,37.58
2017-12-02T08:05:19.540Z,38.55
2017-12-02T08:07:46.989Z,34.50
2017-12-02T08:10:14.446Z,39.00
2017-12-02T08:12:41.898Z,38.50
2017-12-02T08:15:09.329Z,38.28
2017-12-02T08:17:37.212Z,35.58
2017-12-02T08:20:04.648Z,39.90
2017-12-02T08:22:32.093Z,35.78
2017-12-02T08:24:59.894Z,35.75
2017-12-02T08:27:27.333Z,33.58
2017-12-02T08:29:54.769Z,35.95
2017-12-02T08:32:22.311Z,40.70
2017-12-02T08:34:50.144Z,39.50
2017-12-02T08:37:17.580Z,37.28
2017-12-02T08:39:45.049Z,32.15
2017-12-02T08:42:12.480Z,38.83
2017-12-02T08:44:39.928Z,35.35
2017-12-02T08:47:07.393Z,41.13
2017-12-02T08:49:34.825Z,39.95
2017-12-02T08:52:02.264Z,41.22
2017-12-02T08:54:30.116Z,39.65
2017-12-02T08:56:57.952Z,41.22
2017-12-02T08:59:25.392Z,43.70
2017-12-02T09:01:52.841Z,37.85
2017-12-02T09:04:20.276Z,41.72
2017-12-02T09:06:47.711Z,37.38
2017-12-02T09:09:15.651Z,37.28
2017-12-02T09:11:43.092Z,62.15
2017-12-02T09:14:10.532Z,62.17
2017-12-02T09:16:37.994Z,42.13
2017-12-02T09:19:05.426Z,42.75
2017-12-02T09:21:32.932Z,42.62
2017-12-02T09:24:00.338Z,43.83
2017-12-02T09:26:27.777Z,48.00
2017-12-02T09:28:55.366Z,45.72
2017-12-02T09:31:22.806Z,38.33
2017-12-02T09:33:50.264Z,44.53
2017-12-02T09:36:17.705Z,41.88
2017-12-02T09:38:45.165Z,39.17
2017-12-02T09:41:12.601Z,49.78
2017-12-02T09:43:40.033Z,47.92
2017-12-02T09:46:07.873Z,50.20
2017-12-02T09:48:35.345Z,44.92
2017-12-02T09:51:02.777Z,41.58
2017-12-02T09:53:30.208Z,57.92
2017-12-02T09:55:57.749Z,47.75
2017-12-02T09:58:25.185Z,54.70
2017-12-02T10:00:53.008Z,48.55
2017-12-02T10:03:20.441Z,53.00
2017-12-02T10:05:47.887Z,46.60
2017-12-02T10:08:15.321Z,49.15
2017-12-02T10:10:42.757Z,53.67
2017-12-02T10:13:10.701Z,44.22
2017-12-02T10:15:38.141Z,39.10
2017-12-02T10:18:05.597Z,49.28
2017-12-02T10:20:33.125Z,46.22
2017-12-02T10:23:00.708Z,51.35
2017-12-02T10:25:28.143Z,57.58
2017-12-02T10:27:55.602Z,55.40
2017-12-02T10:30:23.051Z,51.45
2017-12-02T10:32:50.481Z,49.70
2017-12-02T10:35:18.312Z,49.45
2017-12-02T10:37:45.753Z,59.35
2017-12-02T10:40:13.201Z,49.20
2017-12-02T10:42:40.630Z,63.05
2017-12-02T10:45:08.060Z,53.17
2017-12-02T10:47:35.917Z,55.80
2017-12-02T10:50:03.748Z,54.10
2017-12-02T10:52:31.179Z,52.70
2017-12-02T10:54:58.708Z,57.65
2017-12-02T10:57:26.149Z,58.47
2017-12-02T10:59:53.981Z,50.97
2017-12-02T11:02:21.440Z,78.10
2017-12-02T11:04:48.881Z,56.00
2017-12-02T11:07:16.328Z,71.55
2017-12-02T11:09:43.862Z,56.10
2017-12-02T11:12:11.299Z,66.82
2017-12-02T11:14:39.124Z,60.83
2017-12-02T11:17:07.430Z,44.28
2017-12-02T11:19:35.268Z,46.80
2017-12-02T11:22:02.749Z,42.83
2017-12-02T11:24:30.332Z,48.92
2017-12-02T11:26:57.902Z,41.72
2017-12-02T11:29:25.333Z,45.65
2017-12-02T11:31:52.768Z,47.00
2017-12-02T11:34:20.613Z,51.72
2017-12-02T11:36:48.053Z,44.67
2017-12-02T11:39:15.488Z,43.00
2017-12-02T11:41:42.924Z,46.33
2017-12-02T11:44:10.714Z,55.70
2017-12-02T11:46:38.154Z,45.85
2017-12-02T11:49:05.589Z,44.80
2017-12-02T11:51:33.290Z,36.55
2017-12-02T11:54:00.730Z,43.33
2017-12-02T11:56:28.173Z,46.28
2017-12-02T11:58:55.729Z,39.97
2017-12-02T12:01:23.185Z,50.58
2017-12-02T12:03:50.621Z,41.70
2017-12-02T12:06:18.099Z,39.63
2017-12-02T12:08:45.563Z,45.60
2017-12-02T12:11:13.016Z,40.47
2017-12-02T12:13:40.451Z,36.35
2017-12-02T12:16:07.927Z,43.72
2017-12-02T12:18:35.385Z,42.88
2017-12-02T12:21:02.837Z,38.38
2017-12-02T12:23:30.282Z,37.97
2017-12-02T12:25:57.727Z,38.38
2017-12-02T12:28:25.166Z,38.15
2017-12-02T12:30:53.006Z,36.57
2017-12-02T12:33:20.446Z,38.08
2017-12-02T12:35:47.904Z,38.35
2017-12-02T12:38:15.357Z,38.05
2017-12-02T12:40:42.814Z,42.67
2017-12-02T12:43:11.088Z,36.50
2017-12-02T12:45:38.537Z,38.78
2017-12-02T12:48:05.972Z,37.65
2017-12-02T12:50:34.245Z,35.03
2017-12-02T12:53:02.552Z,41.65
2017-12-02T12:55:29.993Z,40.63
2017-12-02T12:57:57.448Z,38.72
2017-12-02T13:00:24.891Z,38.85
2017-12-02T13:02:52.559Z,39.40
2017-12-02T13:05:20.003Z,34.00
2017-12-02T13:07:47.455Z,36.13
2017-12-02T13:10:14.908Z,39.80
2017-12-02T13:12:42.349Z,46.53
2017-12-02T13:15:09.790Z,38.65
2017-12-02T13:17:37.294Z,46.35
2017-12-02T13:20:05.081Z,37.75
2017-12-02T13:22:33.340Z,38.03
2017-12-02T13:25:00.787Z,37.33
2017-12-02T13:27:28.679Z,36.03
2017-12-02T13:29:56.097Z,40.45
2017-12-02T13:32:23.599Z,41.60
2017-12-02T13:34:51.033Z,41.37
2017-12-02T13:37:18.472Z,35.38
2017-12-02T13:39:45.913Z,38.50
2017-12-02T13:42:13.356Z,40.12
2017-12-02T13:44:40.791Z,40.53
2017-12-02T13:47:08.588Z,44.28
2017-12-02T13:49:36.020Z,60.67
2017-12-02T13:52:03.465Z,42.95
2017-12-02T13:54:31.036Z,43.55
2017-12-02T13:56:58.481Z,39.58
2017-12-02T13:59:25.925Z,44.60
2017-12-02T14:01:53.796Z,44.85
2017-12-02T14:04:21.230Z,47.80
2017-12-02T14:06:49.053Z,47.30
2017-12-02T14:09:16.527Z,52.00
2017-12-02T14:11:43.956Z,47.00
2017-12-02T14:14:11.385Z,52.17
2017-12-02T14:16:38.869Z,48.25
2017-12-02T14:19:06.303Z,52.05
2017-12-02T14:21:33.747Z,51.40
2017-12-02T14:24:02.057Z,40.22
2017-12-02T14:26:29.498Z,42.65
2017-12-02T14:28:56.928Z,51.33
2017-12-02T14:31:24.620Z,46.15
2017-12-02T14:33:52.053Z,49.35
2017-12-02T14:36:19.495Z,50.70
2017-12-02T14:38:47.241Z,47.78
2017-12-02T14:41:15.082Z,53.63
2017-12-02T14:43:42.512Z,52.90
2017-12-02T14:46:09.960Z,52.30
2017-12-02T14:48:37.399Z,48.63
2017-12-02T14:51:05.900Z,45.45
2017-12-02T14:53:33.337Z,50.90
2017-12-02T14:56:00.768Z,58.40
2017-12-02T14:58:28.885Z,45.88
2017-12-02T15:00:56.326Z,54.63
2017-12-02T15:03:23.766Z,44.95
2017-12-02T15:05:51.474Z,48.20
2017-12-02T15:08:18.909Z,45.90
2017-12-02T15:10:46.353Z,51.10
2017-12-02T15:13:14.121Z,39.42
2017-12-02T15:15:41.559Z,46.72
2017-12-02T15:18:08.997Z,49.20
2017-12-02T15:20:36.525Z,47.15
2017-12-02T15:23:03.965Z,49.65
2017-12-02T15:25:31.444Z,47.95
2017-12-02T15:27:58.877Z,49.20
2017-12-02T15:30:26.323Z,47.03
2017-12-02T15:32:53.762Z,42.65
2017-12-02T15:35:21.192Z,52.70
2017-12-02T15:37:48.649Z,47.53
2017-12-02T15:40:16.077Z,51.97
2017-12-02T15:42:43.904Z,54.13
2017-12-02T15:45:11.347Z,41.55
2017-12-02T15:47:38.800Z,51.67
2017-12-02T15:50:06.227Z,48.33
2017-12-02T15:52:33.661Z,48.83
2017-12-02T15:55:01.518Z,46.47
2017-12-02T15:57:28.952Z,40.67
2017-12-02T15:59:56.385Z,43.17
2017-12-02T16:02:23.854Z,50.00
2017-12-02T16:04:51.295Z,38.00
2017-12-02T16:07:18.732Z,48.60
2017-12-02T16:09:46.449Z,41.90
2017-12-02T16:12:13.877Z,42.05
2017-12-02T16:14:41.313Z,39.38
2017-12-02T16:17:08.756Z,43.53
2017-12-02T16:19:36.189Z,41.53
2017-12-02T16:22:04.012Z,44.03
2017-12-02T16:24:31.452Z,41.00
2017-12-02T16:26:58.916Z,38.63
2017-12-02T16:29:26.352Z,44.53
2017-12-02T16:31:53.782Z,39.30
2017-12-02T16:34:21.244Z,47.97
2017-12-02T16:36:48.680Z,46.65
2017-12-02T16:39:16.517Z,47.28
2017-12-02T16:41:43.989Z,46.58
2017-12-02T16:44:11.813Z,45.40
2017-12-02T16:46:39.246Z,51.15
2017-12-02T16:49:06.789Z,48.63
2017-12-02T16:51:34.221Z,56.22
2017-12-02T16:54:02.046Z,39.85
2017-12-02T16:56:29.505Z,40.08
2017-12-02T16:58:56.941Z,41.65
2017-12-02T17:01:24.376Z,49.47
2017-12-02T17:03:51.845Z,52.72
2017-12-02T17:06:19.274Z,44.45
2017-12-02T17:08:47.102Z,47.78
2017-12-02T17:11:14.569Z,55.58
2017-12-02T17:13:42.002Z,51.33
2017-12-02T17:16:09.446Z,53.58
2017-12-02T17:18:36.900Z,50.17
2017-12-02T17:21:04.343Z,56.67
2017-12-02T17:23:31.775Z,46.53
2017-12-02T17:25:59.571Z,45.40
2017-12-02T17:28:27.005Z,49.13
2017-12-02T17:30:54.446Z,48.03
2017-12-02T17:33:21.881Z,38.92
2017-12-02T17:35:49.720Z,39.58
2017-12-02T17:38:17.158Z,47.53
2017-12-02T17:40:44.608Z,43.00
2017-12-02T17:43:12.052Z,47.28
2017-12-02T17:45:39.478Z,39.33
2017-12-02T17:48:07.342Z,43.63
2017-12-02T17:50:35.174Z,33.78
2017-12-02T17:53:02.608Z,49.97
2017-12-02T17:55:30.071Z,39.55
2017-12-02T17:57:57.499Z,40.75
2017-12-02T18:00:24.935Z,45.83
2017-12-02T18:02:52.368Z,38.58
2017-12-02T18:05:20.213Z,41.75
2017-12-02T18:07:47.653Z,36.50
2017-12-02T18:10:15.084Z,51.55
2017-12-02T18:12:42.538Z,47.22
2017-12-02T18:15:09.973Z,38.08
2017-12-02T18:17:37.400Z,45.33
2017-12-02T18:20:05.257Z,46.13
2017-12-02T18:22:32.689Z,45.92
2017-12-02T18:25:00.137Z,45.22
2017-12-02T18:27:27.840Z,46.00
2017-12-02T18:29:55.665Z,39.55
2017-12-02T18:32:23.095Z,37.28
2017-12-02T18:34:51.497Z,44.63
2017-12-02T18:37:18.933Z,43.13
2017-12-02T18:39:46.368Z,50.67
2017-12-02T18:42:13.846Z,44.08
2017-12-02T18:44:41.285Z,44.45
2017-12-02T18:47:08.712Z,41.15
2017-12-02T18:49:36.545Z,47.28
2017-12-02T18:52:03.977Z,49.80
2017-12-02T18:54:31.740Z,51.70
2017-12-02T18:56:59.176Z,47.53
2017-12-02T18:59:26.613Z,42.80
2017-12-02T19:01:54.061Z,40.65
2017-12-02T19:04:21.896Z,46.60
2017-12-02T19:06:49.336Z,40.17
2017-12-02T19:09:17.084Z,45.42
2017-12-02T19:11:44.521Z,44.10
2017-12-02T19:14:11.964Z,44.55
2017-12-02T19:16:39.517Z,37.05
2017-12-02T19:19:06.952Z,39.05
2017-12-02T19:21:34.780Z,42.22
2017-12-02T19:24:02.236Z,40.80
2017-12-02T19:26:29.673Z,38.25
2017-12-02T19:28:57.812Z,36.15
2017-12-02T19:31:25.643Z,35.20
2017-12-02T19:33:53.084Z,38.95
2017-12-02T19:36:20.527Z,35.08
2017-12-02T19:38:47.965Z,37.53
2017-12-02T19:41:15.403Z,39.05
2017-12-02T19:43:42.849Z,44.22
2017-12-02T19:46:10.685Z,38.17
2017-12-02T19:48:38.117Z,36.10
2017-12-02T19:51:05.573Z,39.42
2017-12-02T19:53:33.010Z,41.97
2017-12-02T19:56:00.437Z,39.88
2017-12-02T19:58:28.366Z,37.72
2017-12-02T20:00:55.800Z,38.13
2017-12-02T20:03:23.224Z,45.70
2017-12-02T20:05:50.673Z,39.85
2017-12-02T20:08:18.104Z,36.20
2017-12-02T20:10:45.936Z,30.02
2017-12-02T20:13:13.397Z,36.78
2017-12-02T20:15:40.829Z,43.45
2017-12-02T20:18:08.266Z,36.08
2017-12-02T20:20:35.730Z,42.20
2017-12-02T20:23:03.163Z,42.22
2017-12-02T20:25:30.600Z,40.97
2017-12-02T20:27:58.453Z,44.55
2017-12-02T20:30:25.906Z,36.45
2017-12-02T20:32:53.486Z,43.33
2017-12-02T20:35:21.313Z,46.22
2017-12-02T20:37:48.753Z,50.15
2017-12-02T20:40:16.516Z,43.42
2017-12-02T20:42:43.984Z,52.83
2017-12-02T20:45:11.430Z,47.30
2017-12-02T20:47:38.901Z,56.83
2017-12-02T20:50:06.363Z,49.83
2017-12-02T20:52:33.793Z,50.33
2017-12-02T20:55:01.236Z,47.85
2017-12-02T20:57:28.676Z,46.22
2017-12-02T20:59:56.131Z,52.45
2017-12-02T21:02:23.562Z,52.70
2017-12-02T21:04:51.395Z,60.45
2017-12-02T21:07:19.128Z,53.20
2017-12-02T21:09:46.728Z,43.85
2017-12-02T21:12:14.160Z,53.97
2017-12-02T21:14:41.612Z,52.97
2017-12-02T21:17:09.046Z,45.28
2017-12-02T21:19:36.479Z,44.45
2017-12-02T21:22:04.024Z,46.25
2017-12-02T21:24:31.862Z,40.47
2017-12-02T21:26:59.296Z,40.83
2017-12-02T21:29:26.769Z,41.88
2017-12-02T21:31:54.201Z,48.47
2017-12-02T21:34:21.641Z,35.25
2017-12-02T21:36:49.318Z,42.40
2017-12-02T21:39:16.763Z,41.65
2017-12-02T21:41:44.191Z,44.35
2017-12-02T21:44:11.884Z,50.70
2017-12-02T21:46:39.316Z,49.80
2017-12-02T21:49:06.752Z,44.05
2017-12-02T21:51:35.685Z,43.85
2017-12-02T21:54:03.174Z,39.78
2017-12-02T21:56:30.539Z,42.72
2017-12-02T21:58:58.392Z,42.85
2017-12-02T22:01:25.828Z,38.80
2017-12-02T22:03:53.260Z,43.13
2017-12-02T22:06:21.642Z,40.97
2017-12-02T22:08:49.072Z,36.63
2017-12-02T22:11:16.504Z,34.90
2017-12-02T22:13:44.361Z,41.20
2017-12-02T22:16:11.789Z,42.30
2017-12-02T22:18:39.230Z,45.88
2017-12-02T22:21:06.673Z,43.17
2017-12-02T22:23:34.108Z,41.37
2017-12-02T22:26:01.548Z,40.72
2017-12-02T22:28:29.443Z,37.00
2017-12-02T22:30:56.855Z,42.08
2017-12-02T22:33:24.684Z,32.95
2017-12-02T22:35:52.164Z,42.58
2017-12-02T22:38:19.596Z,39.15
2017-12-02T22:40:47.050Z,44.08
2017-12-02T22:43:14.517Z,44.13
2017-12-02T22:45:41.949Z,42.97
2017-12-02T22:48:09.376Z,44.90
2017-12-02T22:50:36.812Z,44.22
2017-12-02T22:53:04.241Z,43.00
2017-12-02T22:55:31.694Z,44.72
2017-12-02T22:57:59.120Z,39.75
2017-12-02T23:00:26.557Z,41.65
2017-12-02T23:02:54.024Z,43.90
2017-12-02T23:05:21.452Z,45.70
2017-12-02T23:07:48.886Z,34.88
2017-12-02T23:10:16.725Z,49.60
2017-12-02T23:12:44.156Z,45.80
2017-12-02T23:15:11.820Z,39.70
2017-12-02T23:17:39.249Z,46.33
2017-12-02T23:20:06.695Z,43.92
2017-12-02T23:22:34.904Z,43.42
2017-12-02T23:25:02.348Z,44.42
2017-12-02T23:27:29.786Z,49.08
2017-12-02T23:29:57.251Z,42.47
2017-12-02T23:32:24.680Z,42.78
2017-12-02T23:34:52.502Z,51.20
2017-12-02T23:37:20.248Z,46.35
2017-12-02T23:39:47.690Z,56.42
2017-12-02T23:42:15.117Z,49.03
2017-12-02T23:44:42.960Z,49.78
2017-12-02T23:47:10.415Z,52.92
2017-12-02T23:49:38.754Z,55.35
2017-12-02T23:52:06.190Z,54.67
2017-12-02T23:54:33.620Z,52.78
2017-12-02T23:57:01.483Z,55.20
2017-12-02T23:59:29.316Z,58.55
